sensor_id;sensor_type;location;lat;lon;timestamp;temperature;humidity
48162;DHT22;33950;48.154;16.316;2022-07-23T00:01:21;28.20;71.20
48162;DHT22;33950;48.154;16.316;2022-07-23T00:03:47;28.20;71.40
48162;DHT22;33950;48.154;16.316;2022-07-23T00:06:13;28.40;71.50
48162;DHT22;33950;48.154;16.316;2022-07-23T00:08:39;28.40;71.30
48162;DHT22;33950;48.154;16.316;2022-07-23T00:11:04;28.50;71.30
48162;DHT22;33950;48.154;16.316;2022-07-23T00:13:30;28.50;71.10
48162;DHT22;33950;48.154;16.316;2022-07-23T00:15:58;28.50;70.80
48162;DHT22;33950;48.154;16.316;2022-07-23T00:18:23;28.50;70.80
48162;DHT22;33950;48.154;16.316;2022-07-23T00:20:49;28.50;70.90
48162;DHT22;33950;48.154;16.316;2022-07-23T00:23:15;28.60;71.00
48162;DHT22;33950;48.154;16.316;2022-07-23T00:25:41;28.60;71.00
48162;DHT22;33950;48.154;16.316;2022-07-23T00:28:07;28.70;70.70
48162;DHT22;33950;48.154;16.316;2022-07-23T00:30:33;28.60;70.60
48162;DHT22;33950;48.154;16.316;2022-07-23T00:33:02;28.50;70.80
48162;DHT22;33950;48.154;16.316;2022-07-23T00:35:30;28.30;71.20
48162;DHT22;33950;48.154;16.316;2022-07-23T00:37:57;28.10;71.80
48162;DHT22;33950;48.154;16.316;2022-07-23T00:40:23;27.90;71.90
48162;DHT22;33950;48.154;16.316;2022-07-23T00:42:49;27.80;72.00
48162;DHT22;33950;48.154;16.316;2022-07-23T00:45:15;27.70;72.40
48162;DHT22;33950;48.154;16.316;2022-07-23T00:47:41;27.60;72.30
48162;DHT22;33950;48.154;16.316;2022-07-23T00:50:09;27.60;72.30
48162;DHT22;33950;48.154;16.316;2022-07-23T00:52:37;27.50;72.20
48162;DHT22;33950;48.154;16.316;2022-07-23T00:55:03;27.30;72.60
48162;DHT22;33950;48.154;16.316;2022-07-23T00:57:29;27.30;72.10
48162;DHT22;33950;48.154;16.316;2022-07-23T00:59:55;27.30;71.40
48162;DHT22;33950;48.154;16.316;2022-07-23T01:02:23;27.40;71.20
48162;DHT22;33950;48.154;16.316;2022-07-23T01:04:49;27.40;71.30
48162;DHT22;33950;48.154;16.316;2022-07-23T01:07:17;27.40;71.20
48162;DHT22;33950;48.154;16.316;2022-07-23T01:09:44;27.50;72.00
48162;DHT22;33950;48.154;16.316;2022-07-23T01:12:10;27.70;75.10
48162;DHT22;33950;48.154;16.316;2022-07-23T01:14:36;27.30;72.70
48162;DHT22;33950;48.154;16.316;2022-07-23T01:17:02;27.20;72.80
48162;DHT22;33950;48.154;16.316;2022-07-23T01:19:27;27.10;73.10
48162;DHT22;33950;48.154;16.316;2022-07-23T01:21:54;27.00;72.90
48162;DHT22;33950;48.154;16.316;2022-07-23T01:24:24;26.90;73.30
48162;DHT22;33950;48.154;16.316;2022-07-23T01:26:50;26.80;73.30
48162;DHT22;33950;48.154;16.316;2022-07-23T01:29:16;26.80;73.70
48162;DHT22;33950;48.154;16.316;2022-07-23T01:31:43;26.60;73.50
48162;DHT22;33950;48.154;16.316;2022-07-23T01:34:09;26.40;73.40
48162;DHT22;33950;48.154;16.316;2022-07-23T01:36:35;26.40;73.60
48162;DHT22;33950;48.154;16.316;2022-07-23T01:39:01;26.60;73.80
48162;DHT22;33950;48.154;16.316;2022-07-23T01:41:29;26.60;74.70
48162;DHT22;33950;48.154;16.316;2022-07-23T01:43:55;26.80;75.00
48162;DHT22;33950;48.154;16.316;2022-07-23T01:46:21;26.90;74.80
48162;DHT22;33950;48.154;16.316;2022-07-23T01:48:47;27.00;75.50
48162;DHT22;33950;48.154;16.316;2022-07-23T01:51:13;27.10;75.20
48162;DHT22;33950;48.154;16.316;2022-07-23T01:53:38;27.20;76.10
48162;DHT22;33950;48.154;16.316;2022-07-23T01:56:04;27.40;75.30
48162;DHT22;33950;48.154;16.316;2022-07-23T01:58:32;27.40;75.50
48162;DHT22;33950;48.154;16.316;2022-07-23T02:00:57;27.40;75.60
48162;DHT22;33950;48.154;16.316;2022-07-23T02:03:24;27.50;75.70
48162;DHT22;33950;48.154;16.316;2022-07-23T02:05:50;27.60;75.60
48162;DHT22;33950;48.154;16.316;2022-07-23T02:08:17;27.60;76.40
48162;DHT22;33950;48.154;16.316;2022-07-23T02:10:43;27.60;75.80
48162;DHT22;33950;48.154;16.316;2022-07-23T02:13:09;27.70;75.60
48162;DHT22;33950;48.154;16.316;2022-07-23T02:15:36;27.80;75.10
48162;DHT22;33950;48.154;16.316;2022-07-23T02:18:03;27.90;74.90
48162;DHT22;33950;48.154;16.316;2022-07-23T02:20:28;27.90;74.80
48162;DHT22;33950;48.154;16.316;2022-07-23T02:22:54;27.90;74.60
48162;DHT22;33950;48.154;16.316;2022-07-23T02:25:20;27.70;74.80
48162;DHT22;33950;48.154;16.316;2022-07-23T02:27:46;27.70;75.10
48162;DHT22;33950;48.154;16.316;2022-07-23T02:30:12;27.80;75.00
48162;DHT22;33950;48.154;16.316;2022-07-23T02:32:39;27.70;74.90
48162;DHT22;33950;48.154;16.316;2022-07-23T02:35:07;27.70;74.90
48162;DHT22;33950;48.154;16.316;2022-07-23T02:37:33;27.80;74.90
48162;DHT22;33950;48.154;16.316;2022-07-23T02:39:59;27.90;75.00
48162;DHT22;33950;48.154;16.316;2022-07-23T02:42:25;28.00;74.90
48162;DHT22;33950;48.154;16.316;2022-07-23T02:44:51;28.10;74.70
48162;DHT22;33950;48.154;16.316;2022-07-23T02:47:17;28.20;75.00
48162;DHT22;33950;48.154;16.316;2022-07-23T02:49:44;28.30;74.70
48162;DHT22;33950;48.154;16.316;2022-07-23T02:52:10;28.30;74.90
48162;DHT22;33950;48.154;16.316;2022-07-23T02:54:36;28.30;74.90
48162;DHT22;33950;48.154;16.316;2022-07-23T02:57:01;28.40;75.30
48162;DHT22;33950;48.154;16.316;2022-07-23T02:59:27;28.50;75.50
48162;DHT22;33950;48.154;16.316;2022-07-23T03:01:53;28.50;75.20
48162;DHT22;33950;48.154;16.316;2022-07-23T03:04:19;28.50;75.50
48162;DHT22;33950;48.154;16.316;2022-07-23T03:06:46;28.50;75.50
48162;DHT22;33950;48.154;16.316;2022-07-23T03:09:12;28.50;75.40
48162;DHT22;33950;48.154;16.316;2022-07-23T03:11:38;28.50;75.50
48162;DHT22;33950;48.154;16.316;2022-07-23T03:14:04;28.50;75.50
48162;DHT22;33950;48.154;16.316;2022-07-23T03:16:30;28.50;75.60
48162;DHT22;33950;48.154;16.316;2022-07-23T03:18:55;28.50;75.30
48162;DHT22;33950;48.154;16.316;2022-07-23T03:21:21;28.40;76.40
48162;DHT22;33950;48.154;16.316;2022-07-23T03:23:49;28.40;75.70
48162;DHT22;33950;48.154;16.316;2022-07-23T03:26:14;28.40;75.70
48162;DHT22;33950;48.154;16.316;2022-07-23T03:28:40;28.40;75.50
48162;DHT22;33950;48.154;16.316;2022-07-23T03:31:06;28.30;75.30
48162;DHT22;33950;48.154;16.316;2022-07-23T03:33:32;28.30;75.30
48162;DHT22;33950;48.154;16.316;2022-07-23T03:35:58;28.30;75.50
48162;DHT22;33950;48.154;16.316;2022-07-23T03:38:24;28.30;76.00
48162;DHT22;33950;48.154;16.316;2022-07-23T03:40:51;28.30;75.90
48162;DHT22;33950;48.154;16.316;2022-07-23T03:43:17;28.30;75.50
48162;DHT22;33950;48.154;16.316;2022-07-23T03:45:42;28.30;76.20
48162;DHT22;33950;48.154;16.316;2022-07-23T03:48:08;28.30;76.30
48162;DHT22;33950;48.154;16.316;2022-07-23T03:50:34;28.30;75.90
48162;DHT22;33950;48.154;16.316;2022-07-23T03:53:00;28.20;75.90
48162;DHT22;33950;48.154;16.316;2022-07-23T03:55:26;28.20;75.90
48162;DHT22;33950;48.154;16.316;2022-07-23T03:57:53;28.10;75.90
48162;DHT22;33950;48.154;16.316;2022-07-23T04:00:19;28.10;75.90
48162;DHT22;33950;48.154;16.316;2022-07-23T04:02:45;28.10;75.90
48162;DHT22;33950;48.154;16.316;2022-07-23T04:05:11;28.10;76.10
48162;DHT22;33950;48.154;16.316;2022-07-23T04:07:37;28.20;76.00
48162;DHT22;33950;48.154;16.316;2022-07-23T04:10:03;28.20;75.90
48162;DHT22;33950;48.154;16.316;2022-07-23T04:12:29;28.10;76.00
48162;DHT22;33950;48.154;16.316;2022-07-23T04:14:56;28.10;76.20
48162;DHT22;33950;48.154;16.316;2022-07-23T04:17:22;28.10;76.80
48162;DHT22;33950;48.154;16.316;2022-07-23T04:19:48;28.10;76.80
48162;DHT22;33950;48.154;16.316;2022-07-23T04:22:14;28.10;76.20
48162;DHT22;33950;48.154;16.316;2022-07-23T04:24:39;28.10;76.50
48162;DHT22;33950;48.154;16.316;2022-07-23T04:27:05;28.10;76.80
48162;DHT22;33950;48.154;16.316;2022-07-23T04:29:31;28.10;77.00
48162;DHT22;33950;48.154;16.316;2022-07-23T04:31:59;28.00;77.10
48162;DHT22;33950;48.154;16.316;2022-07-23T04:34:25;27.90;77.20
48162;DHT22;33950;48.154;16.316;2022-07-23T04:36:52;28.00;77.40
48162;DHT22;33950;48.154;16.316;2022-07-23T04:39:18;28.10;77.50
48162;DHT22;33950;48.154;16.316;2022-07-23T04:41:44;28.10;77.60
48162;DHT22;33950;48.154;16.316;2022-07-23T04:44:10;28.10;77.30
48162;DHT22;33950;48.154;16.316;2022-07-23T04:46:35;28.10;78.10
48162;DHT22;33950;48.154;16.316;2022-07-23T04:49:03;28.00;77.50
48162;DHT22;33950;48.154;16.316;2022-07-23T04:51:28;28.00;77.50
48162;DHT22;33950;48.154;16.316;2022-07-23T04:53:54;28.00;77.60
48162;DHT22;33950;48.154;16.316;2022-07-23T04:56:20;28.00;77.10
48162;DHT22;33950;48.154;16.316;2022-07-23T04:58:46;28.00;77.10
48162;DHT22;33950;48.154;16.316;2022-07-23T05:01:12;27.90;75.20
48162;DHT22;33950;48.154;16.316;2022-07-23T05:03:38;27.90;74.80
48162;DHT22;33950;48.154;16.316;2022-07-23T05:06:05;27.90;74.30
48162;DHT22;33950;48.154;16.316;2022-07-23T05:08:31;27.90;74.80
48162;DHT22;33950;48.154;16.316;2022-07-23T05:10:57;27.90;74.40
48162;DHT22;33950;48.154;16.316;2022-07-23T05:13:23;27.80;74.10
48162;DHT22;33950;48.154;16.316;2022-07-23T05:15:49;27.80;73.80
48162;DHT22;33950;48.154;16.316;2022-07-23T05:18:15;27.90;73.70
48162;DHT22;33950;48.154;16.316;2022-07-23T05:20:40;28.00;73.80
48162;DHT22;33950;48.154;16.316;2022-07-23T05:23:07;28.00;73.50
48162;DHT22;33950;48.154;16.316;2022-07-23T05:25:33;28.10;73.70
48162;DHT22;33950;48.154;16.316;2022-07-23T05:27:59;28.10;73.90
48162;DHT22;33950;48.154;16.316;2022-07-23T05:30:25;28.10;73.50
48162;DHT22;33950;48.154;16.316;2022-07-23T05:32:51;28.00;73.90
48162;DHT22;33950;48.154;16.316;2022-07-23T05:35:17;27.90;74.10
48162;DHT22;33950;48.154;16.316;2022-07-23T05:37:43;27.90;74.30
48162;DHT22;33950;48.154;16.316;2022-07-23T05:40:11;27.90;74.40
48162;DHT22;33950;48.154;16.316;2022-07-23T05:42:38;27.80;74.90
48162;DHT22;33950;48.154;16.316;2022-07-23T05:45:05;27.80;74.90
48162;DHT22;33950;48.154;16.316;2022-07-23T05:47:39;27.60;75.00
48162;DHT22;33950;48.154;16.316;2022-07-23T05:50:06;27.50;74.80
48162;DHT22;33950;48.154;16.316;2022-07-23T05:52:32;27.40;75.20
48162;DHT22;33950;48.154;16.316;2022-07-23T05:54:58;27.40;75.80
48162;DHT22;33950;48.154;16.316;2022-07-23T05:57:25;27.50;75.10
48162;DHT22;33950;48.154;16.316;2022-07-23T05:59:51;27.50;74.90
48162;DHT22;33950;48.154;16.316;2022-07-23T06:02:17;27.50;74.90
48162;DHT22;33950;48.154;16.316;2022-07-23T06:04:42;27.60;74.60
48162;DHT22;33950;48.154;16.316;2022-07-23T06:07:08;27.60;74.40
48162;DHT22;33950;48.154;16.316;2022-07-23T06:09:34;27.50;74.70
48162;DHT22;33950;48.154;16.316;2022-07-23T06:12:00;27.60;74.60
48162;DHT22;33950;48.154;16.316;2022-07-23T06:14:27;27.50;74.60
48162;DHT22;33950;48.154;16.316;2022-07-23T06:16:52;27.50;75.60
48162;DHT22;33950;48.154;16.316;2022-07-23T06:19:18;27.50;75.20
48162;DHT22;33950;48.154;16.316;2022-07-23T06:21:44;27.50;75.60
48162;DHT22;33950;48.154;16.316;2022-07-23T06:24:10;27.60;75.70
48162;DHT22;33950;48.154;16.316;2022-07-23T06:26:36;27.60;75.90
48162;DHT22;33950;48.154;16.316;2022-07-23T06:29:01;27.60;75.70
48162;DHT22;33950;48.154;16.316;2022-07-23T06:31:29;27.60;75.50
48162;DHT22;33950;48.154;16.316;2022-07-23T06:33:54;27.70;75.20
48162;DHT22;33950;48.154;16.316;2022-07-23T06:36:20;27.60;74.60
48162;DHT22;33950;48.154;16.316;2022-07-23T06:38:46;27.70;74.60
48162;DHT22;33950;48.154;16.316;2022-07-23T06:41:12;27.70;74.60
48162;DHT22;33950;48.154;16.316;2022-07-23T06:43:38;27.70;73.90
48162;DHT22;33950;48.154;16.316;2022-07-23T06:46:04;27.70;74.20
48162;DHT22;33950;48.154;16.316;2022-07-23T06:48:31;27.70;73.90
48162;DHT22;33950;48.154;16.316;2022-07-23T06:51:00;27.70;73.40
48162;DHT22;33950;48.154;16.316;2022-07-23T06:53:25;27.80;73.10
48162;DHT22;33950;48.154;16.316;2022-07-23T06:55:51;27.90;72.40
48162;DHT22;33950;48.154;16.316;2022-07-23T06:58:17;28.00;71.60
48162;DHT22;33950;48.154;16.316;2022-07-23T07:00:44;28.10;72.10
48162;DHT22;33950;48.154;16.316;2022-07-23T07:03:10;28.10;71.50
48162;DHT22;33950;48.154;16.316;2022-07-23T07:05:38;28.00;70.90
48162;DHT22;33950;48.154;16.316;2022-07-23T07:08:05;28.10;69.70
48162;DHT22;33950;48.154;16.316;2022-07-23T07:10:31;28.10;70.10
48162;DHT22;33950;48.154;16.316;2022-07-23T07:12:57;28.20;70.00
48162;DHT22;33950;48.154;16.316;2022-07-23T07:15:23;28.20;69.70
48162;DHT22;33950;48.154;16.316;2022-07-23T07:17:49;28.20;69.70
48162;DHT22;33950;48.154;16.316;2022-07-23T07:20:15;28.20;69.80
48162;DHT22;33950;48.154;16.316;2022-07-23T07:22:42;28.10;69.70
48162;DHT22;33950;48.154;16.316;2022-07-23T07:25:08;28.10;69.90
48162;DHT22;33950;48.154;16.316;2022-07-23T07:27:34;28.00;69.30
48162;DHT22;33950;48.154;16.316;2022-07-23T07:30:00;28.00;69.90
48162;DHT22;33950;48.154;16.316;2022-07-23T07:32:26;28.00;69.00
48162;DHT22;33950;48.154;16.316;2022-07-23T07:34:52;28.00;68.70
48162;DHT22;33950;48.154;16.316;2022-07-23T07:37:17;28.00;68.80
48162;DHT22;33950;48.154;16.316;2022-07-23T07:39:44;28.10;69.60
48162;DHT22;33950;48.154;16.316;2022-07-23T07:42:10;28.20;68.30
48162;DHT22;33950;48.154;16.316;2022-07-23T07:44:36;28.20;68.00
48162;DHT22;33950;48.154;16.316;2022-07-23T07:47:02;28.20;68.50
48162;DHT22;33950;48.154;16.316;2022-07-23T07:49:28;28.20;69.00
48162;DHT22;33950;48.154;16.316;2022-07-23T07:51:54;28.30;67.70
48162;DHT22;33950;48.154;16.316;2022-07-23T07:54:20;28.30;68.10
48162;DHT22;33950;48.154;16.316;2022-07-23T07:56:47;28.50;67.90
48162;DHT22;33950;48.154;16.316;2022-07-23T07:59:14;28.50;67.90
48162;DHT22;33950;48.154;16.316;2022-07-23T08:01:40;28.50;67.70
48162;DHT22;33950;48.154;16.316;2022-07-23T08:04:06;28.30;68.40
48162;DHT22;33950;48.154;16.316;2022-07-23T08:06:32;28.30;68.40
48162;DHT22;33950;48.154;16.316;2022-07-23T08:08:57;28.30;68.40
48162;DHT22;33950;48.154;16.316;2022-07-23T08:11:23;28.40;68.30
48162;DHT22;33950;48.154;16.316;2022-07-23T08:13:50;28.50;68.20
48162;DHT22;33950;48.154;16.316;2022-07-23T08:16:16;28.60;68.30
48162;DHT22;33950;48.154;16.316;2022-07-23T08:18:42;28.60;68.60
48162;DHT22;33950;48.154;16.316;2022-07-23T08:21:08;28.70;68.50
48162;DHT22;33950;48.154;16.316;2022-07-23T08:23:33;28.90;68.70
48162;DHT22;33950;48.154;16.316;2022-07-23T08:26:00;29.10;68.10
48162;DHT22;33950;48.154;16.316;2022-07-23T08:28:26;29.10;68.40
48162;DHT22;33950;48.154;16.316;2022-07-23T08:30:53;29.10;68.40
48162;DHT22;33950;48.154;16.316;2022-07-23T08:33:19;29.20;68.20
48162;DHT22;33950;48.154;16.316;2022-07-23T08:35:47;29.20;68.10
48162;DHT22;33950;48.154;16.316;2022-07-23T08:38:15;29.30;68.10
48162;DHT22;33950;48.154;16.316;2022-07-23T08:40:43;29.40;67.20
48162;DHT22;33950;48.154;16.316;2022-07-23T08:43:12;29.30;67.90
48162;DHT22;33950;48.154;16.316;2022-07-23T08:45:39;29.40;67.40
48162;DHT22;33950;48.154;16.316;2022-07-23T08:48:08;29.50;67.90
48162;DHT22;33950;48.154;16.316;2022-07-23T08:50:36;29.40;67.30
48162;DHT22;33950;48.154;16.316;2022-07-23T08:53:06;29.50;66.80
48162;DHT22;33950;48.154;16.316;2022-07-23T08:55:32;29.50;66.30
48162;DHT22;33950;48.154;16.316;2022-07-23T08:57:58;29.50;66.30
48162;DHT22;33950;48.154;16.316;2022-07-23T09:00:24;29.50;65.90
48162;DHT22;33950;48.154;16.316;2022-07-23T09:02:51;29.50;66.00
48162;DHT22;33950;48.154;16.316;2022-07-23T09:05:19;29.60;65.90
48162;DHT22;33950;48.154;16.316;2022-07-23T09:08:07;29.60;64.80
48162;DHT22;33950;48.154;16.316;2022-07-23T09:10:50;29.60;65.60
48162;DHT22;33950;48.154;16.316;2022-07-23T09:13:24;29.70;65.90
48162;DHT22;33950;48.154;16.316;2022-07-23T09:15:50;29.80;65.00
48162;DHT22;33950;48.154;16.316;2022-07-23T09:18:16;30.00;65.20
48162;DHT22;33950;48.154;16.316;2022-07-23T09:20:45;30.10;65.00
48162;DHT22;33950;48.154;16.316;2022-07-23T09:23:10;30.30;64.70
48162;DHT22;33950;48.154;16.316;2022-07-23T09:25:36;30.20;64.50
48162;DHT22;33950;48.154;16.316;2022-07-23T09:28:03;30.20;63.90
48162;DHT22;33950;48.154;16.316;2022-07-23T09:30:31;30.20;64.70
48162;DHT22;33950;48.154;16.316;2022-07-23T09:33:07;30.30;65.20
48162;DHT22;33950;48.154;16.316;2022-07-23T09:35:46;30.30;64.60
48162;DHT22;33950;48.154;16.316;2022-07-23T09:38:13;30.40;65.00
48162;DHT22;33950;48.154;16.316;2022-07-23T09:40:39;30.70;64.10
48162;DHT22;33950;48.154;16.316;2022-07-23T09:43:05;30.80;64.50
48162;DHT22;33950;48.154;16.316;2022-07-23T09:45:30;31.00;64.50
48162;DHT22;33950;48.154;16.316;2022-07-23T09:48:10;31.20;64.10
48162;DHT22;33950;48.154;16.316;2022-07-23T09:50:36;31.10;63.70
48162;DHT22;33950;48.154;16.316;2022-07-23T09:53:04;31.00;65.00
48162;DHT22;33950;48.154;16.316;2022-07-23T09:55:32;31.00;65.20
48162;DHT22;33950;48.154;16.316;2022-07-23T09:58:04;31.20;64.90
48162;DHT22;33950;48.154;16.316;2022-07-23T10:00:31;31.30;63.90
48162;DHT22;33950;48.154;16.316;2022-07-23T10:02:58;31.50;62.80
48162;DHT22;33950;48.154;16.316;2022-07-23T10:05:25;31.70;63.20
48162;DHT22;33950;48.154;16.316;2022-07-23T10:07:52;31.60;63.00
48162;DHT22;33950;48.154;16.316;2022-07-23T10:10:20;31.50;63.50
48162;DHT22;33950;48.154;16.316;2022-07-23T10:12:47;31.30;63.20
48162;DHT22;33950;48.154;16.316;2022-07-23T10:15:16;31.20;62.70
48162;DHT22;33950;48.154;16.316;2022-07-23T10:17:42;31.10;63.00
48162;DHT22;33950;48.154;16.316;2022-07-23T10:20:08;31.10;62.90
48162;DHT22;33950;48.154;16.316;2022-07-23T10:22:35;31.10;63.00
48162;DHT22;33950;48.154;16.316;2022-07-23T10:25:12;31.10;63.60
48162;DHT22;33950;48.154;16.316;2022-07-23T10:27:49;31.10;64.50
48162;DHT22;33950;48.154;16.316;2022-07-23T10:30:19;31.30;64.30
48162;DHT22;33950;48.154;16.316;2022-07-23T10:32:53;31.40;63.00
48162;DHT22;33950;48.154;16.316;2022-07-23T10:35:29;31.50;63.30
48162;DHT22;33950;48.154;16.316;2022-07-23T10:38:02;31.50;62.90
48162;DHT22;33950;48.154;16.316;2022-07-23T10:40:31;31.80;63.80
48162;DHT22;33950;48.154;16.316;2022-07-23T10:42:59;32.10;63.40
48162;DHT22;33950;48.154;16.316;2022-07-23T10:45:30;32.40;63.30
48162;DHT22;33950;48.154;16.316;2022-07-23T10:48:10;32.70;62.40
48162;DHT22;33950;48.154;16.316;2022-07-23T10:50:37;32.60;62.70
48162;DHT22;33950;48.154;16.316;2022-07-23T10:53:15;32.60;61.20
48162;DHT22;33950;48.154;16.316;2022-07-23T10:55:46;32.30;61.30
48162;DHT22;33950;48.154;16.316;2022-07-23T10:58:19;32.20;61.80
48162;DHT22;33950;48.154;16.316;2022-07-23T11:00:45;32.00;62.10
48162;DHT22;33950;48.154;16.316;2022-07-23T11:03:30;32.00;62.70
48162;DHT22;33950;48.154;16.316;2022-07-23T11:05:58;31.80;63.00
48162;DHT22;33950;48.154;16.316;2022-07-23T11:08:24;31.70;63.20
48162;DHT22;33950;48.154;16.316;2022-07-23T11:10:56;31.70;63.30
48162;DHT22;33950;48.154;16.316;2022-07-23T11:13:40;31.60;63.40
48162;DHT22;33950;48.154;16.316;2022-07-23T11:16:11;31.60;62.90
48162;DHT22;33950;48.154;16.316;2022-07-23T11:19:02;31.90;64.20
48162;DHT22;33950;48.154;16.316;2022-07-23T11:21:48;32.20;63.30
48162;DHT22;33950;48.154;16.316;2022-07-23T11:24:16;32.50;62.90
48162;DHT22;33950;48.154;16.316;2022-07-23T11:26:59;32.90;63.50
48162;DHT22;33950;48.154;16.316;2022-07-23T11:29:49;33.10;62.40
48162;DHT22;33950;48.154;16.316;2022-07-23T11:32:37;33.40;62.70
48162;DHT22;33950;48.154;16.316;2022-07-23T11:35:20;33.70;62.00
48162;DHT22;33950;48.154;16.316;2022-07-23T11:37:47;33.80;61.90
48162;DHT22;33950;48.154;16.316;2022-07-23T11:40:16;34.00;61.60
48162;DHT22;33950;48.154;16.316;2022-07-23T11:42:55;34.10;61.80
48162;DHT22;33950;48.154;16.316;2022-07-23T11:45:23;33.70;61.80
48162;DHT22;33950;48.154;16.316;2022-07-23T11:47:49;33.50;61.70
48162;DHT22;33950;48.154;16.316;2022-07-23T11:50:15;33.40;62.70
48162;DHT22;33950;48.154;16.316;2022-07-23T11:52:41;33.30;62.20
48162;DHT22;33950;48.154;16.316;2022-07-23T11:55:08;33.40;62.50
48162;DHT22;33950;48.154;16.316;2022-07-23T11:57:36;33.60;62.30
48162;DHT22;33950;48.154;16.316;2022-07-23T12:00:04;33.60;62.60
48162;DHT22;33950;48.154;16.316;2022-07-23T12:02:32;33.40;62.20
48162;DHT22;33950;48.154;16.316;2022-07-23T12:04:59;33.20;62.30
48162;DHT22;33950;48.154;16.316;2022-07-23T12:07:27;33.00;62.60
48162;DHT22;33950;48.154;16.316;2022-07-23T12:09:54;32.90;64.10
48162;DHT22;33950;48.154;16.316;2022-07-23T12:12:20;32.90;62.80
48162;DHT22;33950;48.154;16.316;2022-07-23T12:14:51;32.90;62.90
48162;DHT22;33950;48.154;16.316;2022-07-23T12:17:17;32.90;62.50
48162;DHT22;33950;48.154;16.316;2022-07-23T12:19:46;32.90;62.40
48162;DHT22;33950;48.154;16.316;2022-07-23T12:22:12;32.60;62.40
48162;DHT22;33950;48.154;16.316;2022-07-23T12:24:56;32.50;62.90
48162;DHT22;33950;48.154;16.316;2022-07-23T12:27:26;32.50;62.50
48162;DHT22;33950;48.154;16.316;2022-07-23T12:29:52;32.40;62.10
48162;DHT22;33950;48.154;16.316;2022-07-23T12:32:20;32.40;62.50
48162;DHT22;33950;48.154;16.316;2022-07-23T12:34:48;32.20;62.10
48162;DHT22;33950;48.154;16.316;2022-07-23T12:37:27;32.00;62.40
48162;DHT22;33950;48.154;16.316;2022-07-23T12:39:55;32.00;61.80
48162;DHT22;33950;48.154;16.316;2022-07-23T12:42:21;31.90;62.40
48162;DHT22;33950;48.154;16.316;2022-07-23T12:45:06;31.50;61.90
48162;DHT22;33950;48.154;16.316;2022-07-23T12:47:50;31.40;61.80
48162;DHT22;33950;48.154;16.316;2022-07-23T12:53:12;31.20;62.30
48162;DHT22;33950;48.154;16.316;2022-07-23T12:55:38;31.30;61.00
48162;DHT22;33950;48.154;16.316;2022-07-23T12:58:12;31.30;59.70
48162;DHT22;33950;48.154;16.316;2022-07-23T13:01:03;31.20;60.00
48162;DHT22;33950;48.154;16.316;2022-07-23T13:03:32;31.40;59.60
48162;DHT22;33950;48.154;16.316;2022-07-23T13:06:01;31.50;60.40
48162;DHT22;33950;48.154;16.316;2022-07-23T13:08:31;31.70;60.00
48162;DHT22;33950;48.154;16.316;2022-07-23T13:10:57;31.80;58.40
48162;DHT22;33950;48.154;16.316;2022-07-23T13:13:26;32.00;58.40
48162;DHT22;33950;48.154;16.316;2022-07-23T13:15:53;32.10;57.80
48162;DHT22;33950;48.154;16.316;2022-07-23T13:18:19;32.30;58.30
48162;DHT22;33950;48.154;16.316;2022-07-23T13:20:46;32.40;57.10
48162;DHT22;33950;48.154;16.316;2022-07-23T13:23:13;32.40;57.50
48162;DHT22;33950;48.154;16.316;2022-07-23T13:25:40;32.50;57.10
48162;DHT22;33950;48.154;16.316;2022-07-23T13:28:06;32.50;56.70
48162;DHT22;33950;48.154;16.316;2022-07-23T13:30:32;32.50;57.60
48162;DHT22;33950;48.154;16.316;2022-07-23T13:32:58;32.50;57.00
48162;DHT22;33950;48.154;16.316;2022-07-23T13:35:24;32.20;56.90
48162;DHT22;33950;48.154;16.316;2022-07-23T13:37:50;32.10;57.30
48162;DHT22;33950;48.154;16.316;2022-07-23T13:40:16;32.10;57.10
48162;DHT22;33950;48.154;16.316;2022-07-23T13:42:43;32.20;57.30
48162;DHT22;33950;48.154;16.316;2022-07-23T13:45:10;32.60;56.60
48162;DHT22;33950;48.154;16.316;2022-07-23T13:47:36;32.80;55.90
48162;DHT22;33950;48.154;16.316;2022-07-23T13:50:03;33.10;56.50
48162;DHT22;33950;48.154;16.316;2022-07-23T13:52:29;33.20;56.10
48162;DHT22;33950;48.154;16.316;2022-07-23T13:54:55;32.90;56.20
48162;DHT22;33950;48.154;16.316;2022-07-23T13:57:21;32.60;56.20
48162;DHT22;33950;48.154;16.316;2022-07-23T13:59:51;32.40;55.90
48162;DHT22;33950;48.154;16.316;2022-07-23T14:02:18;32.60;56.80
48162;DHT22;33950;48.154;16.316;2022-07-23T14:04:45;32.70;56.80
48162;DHT22;33950;48.154;16.316;2022-07-23T14:07:11;32.80;56.80
48162;DHT22;33950;48.154;16.316;2022-07-23T14:09:37;33.10;57.70
48162;DHT22;33950;48.154;16.316;2022-07-23T14:12:03;33.30;56.90
48162;DHT22;33950;48.154;16.316;2022-07-23T14:14:29;33.30;55.70
48162;DHT22;33950;48.154;16.316;2022-07-23T14:16:56;33.20;56.20
48162;DHT22;33950;48.154;16.316;2022-07-23T14:19:22;32.90;54.80
48162;DHT22;33950;48.154;16.316;2022-07-23T14:21:48;32.80;55.10
48162;DHT22;33950;48.154;16.316;2022-07-23T14:24:14;32.80;55.30
48162;DHT22;33950;48.154;16.316;2022-07-23T14:26:41;32.70;54.80
48162;DHT22;33950;48.154;16.316;2022-07-23T14:29:06;32.70;55.60
48162;DHT22;33950;48.154;16.316;2022-07-23T14:31:32;32.80;55.50
48162;DHT22;33950;48.154;16.316;2022-07-23T14:34:00;32.90;55.70
48162;DHT22;33950;48.154;16.316;2022-07-23T14:36:26;32.90;55.60
48162;DHT22;33950;48.154;16.316;2022-07-23T14:38:52;33.00;55.70
48162;DHT22;33950;48.154;16.316;2022-07-23T14:41:18;33.20;56.00
48162;DHT22;33950;48.154;16.316;2022-07-23T14:43:44;33.40;56.20
48162;DHT22;33950;48.154;16.316;2022-07-23T14:46:10;33.40;55.80
48162;DHT22;33950;48.154;16.316;2022-07-23T14:48:36;33.30;56.10
48162;DHT22;33950;48.154;16.316;2022-07-23T14:51:03;33.10;56.40
48162;DHT22;33950;48.154;16.316;2022-07-23T14:53:29;33.10;57.20
48162;DHT22;33950;48.154;16.316;2022-07-23T14:55:56;33.20;57.30
48162;DHT22;33950;48.154;16.316;2022-07-23T14:58:25;33.70;57.00
48162;DHT22;33950;48.154;16.316;2022-07-23T15:00:51;33.90;56.60
48162;DHT22;33950;48.154;16.316;2022-07-23T15:03:17;34.00;56.40
48162;DHT22;33950;48.154;16.316;2022-07-23T15:05:43;34.00;56.40
48162;DHT22;33950;48.154;16.316;2022-07-23T15:08:10;34.10;56.80
48162;DHT22;33950;48.154;16.316;2022-07-23T15:10:36;34.20;56.40
48162;DHT22;33950;48.154;16.316;2022-07-23T15:13:01;34.40;56.40
48162;DHT22;33950;48.154;16.316;2022-07-23T15:15:27;34.40;57.00
48162;DHT22;33950;48.154;16.316;2022-07-23T15:17:53;34.50;56.70
48162;DHT22;33950;48.154;16.316;2022-07-23T15:20:19;34.20;56.00